Time;durP1;ratioP1;P1;durP2;ratioP2;P2;SDS_P1;SDS_P2;PMS_P1;PMS_P2;Temp;Humidity;BMP_temperature;BMP_pressure;BME280_temperature;BME280_humidity;BME280_pressure;Samples;Min_cycle;Max_cycle;Signal;HPM_P1;HPM_P2
2022/09/29 00:00:25;;;;;;;3.97;0.82;;;;;;;24.81;40.69;102151.69;4198315;28;20094;-61
2022/09/29 00:02:27;;;;;;;3.35;1.10;;;;;;;24.77;40.37;102152.50;4198393;28;20093;-61
2022/09/29 00:04:28;;;;;;;4.70;1.25;;;;;;;24.80;40.36;102151.97;4195626;28;20041;-61
2022/09/29 00:06:29;;;;;;;1.73;0.90;;;;;;;24.83;40.66;102166.25;4181885;28;20102;-61
2022/09/29 00:08:31;;;;;;;3.92;1.15;;;;;;;24.81;40.69;102164.84;4188036;28;20098;-61
2022/09/29 00:10:32;;;;;;;1.55;0.95;;;;;;;24.84;40.66;102172.69;4198215;28;20082;-61
2022/09/29 00:12:36;;;;;;;1.65;0.90;;;;;;;24.84;40.68;102173.53;4198031;28;20044;-61
2022/09/29 00:14:38;;;;;;;1.60;0.80;;;;;;;24.84;40.53;102179.13;4193992;28;20070;-62
2022/09/29 00:16:42;;;;;;;1.17;0.70;;;;;;;24.85;40.56;102185.56;4181922;28;20041;-61
2022/09/29 00:18:48;;;;;;;0.82;0.82;;;;;;;24.81;40.40;102188.06;4188173;28;20049;-61
2022/09/29 00:21:01;;;;;;;1.75;1.10;;;;;;;24.84;40.33;102198.72;4196383;28;20036;-61
2022/09/29 00:23:03;;;;;;;2.05;1.10;;;;;;;24.76;40.31;102181.63;4197775;28;20542;-61
2022/09/29 00:25:04;;;;;;;2.63;1.17;;;;;;;24.83;40.81;102193.38;4198635;28;20032;-62
2022/09/29 00:27:08;;;;;;;1.30;1.08;;;;;;;24.85;40.66;102203.19;4196627;28;20044;-61
2022/09/29 00:29:10;;;;;;;1.90;0.83;;;;;;;24.84;40.46;102204.31;4198183;28;20049;-62
2022/09/29 00:31:11;;;;;;;3.42;1.20;;;;;;;24.78;40.39;102207.38;4196798;28;20025;-61
2022/09/29 00:33:12;;;;;;;1.30;0.70;;;;;;;24.76;40.53;102187.22;4187861;28;20107;-61
2022/09/29 00:35:17;;;;;;;1.33;0.88;;;;;;;24.83;40.86;102205.44;4181460;28;20087;-61
2022/09/29 00:37:18;;;;;;;0.93;0.80;;;;;;;24.84;40.89;102209.94;4191137;28;20074;-62
2022/09/29 00:39:22;;;;;;;1.05;0.85;;;;;;;24.84;40.89;102209.94;4196523;28;20040;-62
2022/09/29 00:41:29;;;;;;;3.35;0.98;;;;;;;24.67;40.81;102181.31;4181088;28;20126;-62
2022/09/29 00:43:59;;;;;;;1.95;0.90;;;;;;;24.83;40.56;102212.97;4181216;28;20523;-62
2022/09/29 00:46:01;;;;;;;1.73;0.80;;;;;;;24.84;40.70;102200.69;4198036;28;20097;-62
2022/09/29 00:48:11;;;;;;;2.55;0.93;;;;;;;24.76;40.49;102199.25;4197637;28;20066;-61
2022/09/29 00:50:19;;;;;;;4.80;0.70;;;;;;;24.67;40.65;102181.31;4188484;28;20378;-62
2022/09/29 00:52:23;;;;;;;1.45;1.00;;;;;;;24.82;40.59;102202.91;4194405;28;20041;-62
2022/09/29 00:54:32;;;;;;;1.80;0.90;;;;;;;24.81;40.75;102218.03;4184153;28;20448;-62
2022/09/29 00:56:35;;;;;;;1.48;0.80;;;;;;;24.84;40.64;102217.47;4183543;28;20029;-62
2022/09/29 00:58:42;;;;;;;3.53;1.10;;;;;;;24.82;40.88;102226.13;4196941;28;20048;-62
2022/09/29 01:00:43;;;;;;;1.77;0.80;;;;;;;24.80;40.70;102216.34;4185906;28;20041;-61
2022/09/29 01:02:51;;;;;;;2.85;1.00;;;;;;;24.75;40.61;102208.78;4192716;28;20102;-62
2022/09/29 01:04:54;;;;;;;0.82;0.80;;;;;;;24.85;40.67;102225.59;4199354;28;20046;-62
2022/09/29 01:06:57;;;;;;;1.42;0.90;;;;;;;24.86;40.98;102232.03;4197202;28;20040;-62
2022/09/29 01:09:10;;;;;;;2.63;1.20;;;;;;;24.87;40.93;102227.28;4194653;28;20045;-62
2022/09/29 01:11:13;;;;;;;1.85;1.00;;;;;;;24.72;40.62;102209.31;4199383;28;20098;-61
2022/09/29 01:13:14;;;;;;;2.00;0.90;;;;;;;24.87;40.98;102224.47;4206029;28;20105;-62
2022/09/29 01:15:18;;;;;;;2.50;0.88;;;;;;;24.87;40.78;102227.28;4196590;28;20525;-61
2022/09/29 01:17:21;;;;;;;1.10;0.60;;;;;;;24.59;40.97;102184.66;4194413;28;20487;-62
2022/09/29 01:19:31;;;;;;;1.52;0.77;;;;;;;24.88;40.67;102228.94;4202179;28;20525;-61
2022/09/29 01:21:50;;;;;;;1.17;0.80;;;;;;;24.89;40.73;102230.66;4213102;28;20031;-62
2022/09/29 01:23:51;;;;;;;2.67;0.95;;;;;;;24.91;40.66;102228.41;4187531;28;20037;-61
2022/09/29 01:26:05;;;;;;;0.98;0.80;;;;;;;24.80;40.88;102220.00;4185087;28;20063;-61
2022/09/29 01:28:06;;;;;;;1.73;1.00;;;;;;;24.90;40.76;102226.72;4194985;28;20082;-61
2022/09/29 01:30:27;;;;;;;1.17;0.90;;;;;;;24.64;40.97;102193.06;4198943;28;20048;-61
2022/09/29 01:33:07;;;;;;;7.07;1.35;;;;;;;24.74;41.29;102212.72;4179805;28;20041;-61
2022/09/29 01:35:19;;;;;;;8.70;1.25;;;;;;;24.96;41.12;102228.41;4181872;28;20106;-62
2022/09/29 01:37:29;;;;;;;6.65;1.23;;;;;;;24.93;41.63;102231.78;4183990;28;20443;-62
2022/09/29 01:39:47;;;;;;;1.55;1.10;;;;;;;24.92;41.35;102233.72;4180795;28;20041;-63
2022/09/29 01:42:18;;;;;;;4.70;0.90;;;;;;;24.89;41.40;102236.25;4180185;28;20045;-62
2022/09/29 01:44:35;;;;;;;5.22;1.00;;;;;;;24.90;41.49;102240.72;4181062;28;20403;-61
2022/09/29 01:46:43;;;;;;;8.52;1.13;;;;;;;24.89;41.60;102247.44;4187694;28;20033;-61
2022/09/29 01:48:49;;;;;;;6.15;1.20;;;;;;;24.89;41.45;102250.25;4191079;28;20044;-62
2022/09/29 01:50:55;;;;;;;3.95;1.30;;;;;;;24.82;41.82;102242.09;4183957;28;20048;-62
2022/09/29 01:53:13;;;;;;;5.93;1.08;;;;;;;24.80;41.77;102239.59;4183649;28;20037;-62
2022/09/29 01:55:23;;;;;;;4.10;1.10;;;;;;;24.82;41.81;102247.69;4180640;28;20179;-61
2022/09/29 01:57:56;;;;;;;2.83;1.10;;;;;;;24.84;41.76;102251.91;4182678;28;20128;-62
2022/09/29 02:00:10;;;;;;;9.05;1.38;;;;;;;24.85;41.88;102259.19;4185513;28;20442;-62
2022/09/29 02:02:18;;;;;;;5.78;1.27;;;;;;;24.83;41.90;102243.78;4183196;28;20090;-63
2022/09/29 02:04:31;;;;;;;4.43;1.50;;;;;;;24.88;41.91;102245.75;4181039;28;20411;-62
2022/09/29 02:06:42;;;;;;;4.28;1.15;;;;;;;24.74;41.68;102232.31;4183951;28;20167;-63
2022/09/29 02:08:49;;;;;;;7.68;1.48;;;;;;;24.87;42.10;102264.50;4183891;28;20033;-63
2022/09/29 02:11:02;;;;;;;3.75;0.90;;;;;;;24.83;42.21;102267.03;4183911;28;20541;-63
2022/09/29 02:13:08;;;;;;;3.25;1.23;;;;;;;24.83;41.81;102264.25;4189927;28;20102;-62
2022/09/29 02:15:15;;;;;;;8.52;1.25;;;;;;;24.82;42.02;102265.34;4199851;28;20048;-62
2022/09/29 02:17:42;;;;;;;4.65;1.20;;;;;;;24.82;42.11;102264.50;4185426;28;20103;-62
2022/09/29 02:19:44;;;;;;;5.32;1.15;;;;;;;24.69;42.20;102243.47;4187173;28;20185;-61
2022/09/29 02:21:46;;;;;;;5.63;1.10;;;;;;;24.71;42.24;102252.44;4192948;28;20052;-61
2022/09/29 02:23:48;;;;;;;6.03;1.17;;;;;;;24.83;42.09;102278.25;4184083;28;20048;-62
2022/09/29 02:25:56;;;;;;;5.93;1.27;;;;;;;24.80;42.19;102275.97;4185701;28;20545;-62
2022/09/29 02:27:57;;;;;;;3.78;1.00;;;;;;;24.83;41.95;102283.84;4186138;28;20044;-62
2022/09/29 02:29:58;;;;;;;1.75;1.00;;;;;;;24.80;41.93;102277.94;4183661;28;20439;-61
2022/09/29 02:32:01;;;;;;;4.07;1.30;;;;;;;24.81;42.22;102276.81;4183077;28;20103;-61
2022/09/29 02:34:05;;;;;;;4.30;1.23;;;;;;;24.61;42.00;102246.81;4183883;28;20057;-61
2022/09/29 02:36:30;;;;;;;5.95;1.05;;;;;;;24.81;41.99;102283.25;4183096;28;20079;-61
2022/09/29 02:38:51;;;;;;;2.90;1.08;;;;;;;24.80;41.92;102284.38;4183527;28;20082;-61
2022/09/29 02:41:42;;;;;;;5.45;1.48;;;;;;;24.82;42.12;102287.72;4186740;28;20095;-61
2022/09/29 02:44:01;;;;;;;4.13;1.00;;;;;;;24.84;42.05;102296.72;4127667;28;20046;-62
2022/09/29 02:46:39;;;;;;;4.53;1.05;;;;;;;24.78;42.05;102281.00;4144775;28;20433;-61
2022/09/29 02:49:12;;;;;;;3.30;0.90;;;;;;;24.88;42.03;102290.53;4164394;28;20103;-62
2022/09/29 02:51:23;;;;;;;5.25;0.95;;;;;;;24.88;41.93;102302.63;4184852;28;20049;-62
2022/09/29 02:54:00;;;;;;;2.95;1.00;;;;;;;24.87;41.94;102306.50;4193709;28;20045;-62
2022/09/29 02:56:22;;;;;;;4.93;1.00;;;;;;;24.75;42.42;102292.75;4185004;28;20048;-62
2022/09/29 02:58:35;;;;;;;2.95;1.00;;;;;;;24.84;42.30;102310.72;4182979;28;20098;-62
2022/09/29 03:00:37;;;;;;;2.90;1.20;;;;;;;24.83;42.19;102306.25;4188006;28;20365;-63
2022/09/29 03:02:43;;;;;;;7.80;1.02;;;;;;;24.90;42.00;102316.31;4193233;28;20098;-63
2022/09/29 03:04:49;;;;;;;2.00;0.90;;;;;;;24.87;42.17;102308.47;4199290;28;20065;-63
2022/09/29 03:06:51;;;;;;;3.13;1.13;;;;;;;24.93;42.22;102327.81;4198147;28;20037;-62
2022/09/29 03:08:53;;;;;;;2.05;0.85;;;;;;;24.79;42.00;102299.50;4197118;28;20045;-63
2022/09/29 03:10:54;;;;;;;2.85;0.90;;;;;;;24.96;42.06;102318.84;4184613;28;20036;-63
2022/09/29 03:12:58;;;;;;;3.83;1.20;;;;;;;24.99;42.18;102320.28;4183120;28;20049;-62
2022/09/29 03:14:59;;;;;;;3.67;0.80;;;;;;;24.99;41.82;102325.88;4194819;28;20094;-63
2022/09/29 03:17:03;;;;;;;4.72;0.98;;;;;;;24.79;41.96;102302.31;4181633;28;20270;-63
2022/09/29 03:19:06;;;;;;;4.65;1.23;;;;;;;25.01;41.78;102334.84;4183014;28;20103;-63
2022/09/29 03:21:07;;;;;;;1.40;0.80;;;;;;;25.02;41.85;102330.94;4182771;28;20041;-63
2022/09/29 03:23:09;;;;;;;4.40;1.25;;;;;;;25.01;42.24;102329.22;4192101;28;20484;-63
2022/09/29 03:25:11;;;;;;;3.67;0.93;;;;;;;25.01;42.18;102330.06;4183183;28;20086;-62
2022/09/29 03:27:15;;;;;;;2.38;0.70;;;;;;;25.01;41.99;102326.44;4189694;28;20036;-62
2022/09/29 03:29:17;;;;;;;23.25;2.88;;;;;;;24.98;41.89;102324.19;4193521;28;20111;-63
2022/09/29 03:31:18;;;;;;;8.68;1.50;;;;;;;25.04;42.02;102345.50;4184564;28;20098;-63
2022/09/29 03:33:20;;;;;;;3.72;0.82;;;;;;;25.00;42.13;102333.16;4181686;28;20037;-62
2022/09/29 03:35:21;;;;;;;3.17;0.93;;;;;;;24.99;41.90;102337.06;4182849;28;20025;-62
2022/09/29 03:37:22;;;;;;;4.53;0.98;;;;;;;24.91;41.77;102329.19;4182306;28;20137;-63
2022/09/29 03:39:24;;;;;;;4.90;0.75;;;;;;;24.83;42.22;102310.97;4184799;28;20048;-62
2022/09/29 03:41:25;;;;;;;3.00;0.88;;;;;;;25.00;42.08;102338.75;4187414;28;20097;-63
2022/09/29 03:43:29;;;;;;;0.80;0.80;;;;;;;25.00;41.91;102341.56;4181985;28;20037;-63
2022/09/29 03:45:38;;;;;;;1.95;0.88;;;;;;;25.00;41.96;102347.16;4181909;28;20479;-62
2022/09/29 03:47:39;;;;;;;2.85;0.95;;;;;;;25.06;42.03;102351.66;4182408;28;20118;-62
2022/09/29 03:49:40;;;;;;;1.42;0.70;;;;;;;24.76;41.93;102299.22;4182089;28;20041;-62
2022/09/29 03:51:44;;;;;;;3.88;1.00;;;;;;;25.06;41.50;102343.25;4181565;28;20382;-62
2022/09/29 03:53:45;;;;;;;4.05;1.05;;;;;;;24.49;41.81;102249.84;4181644;28;20037;-63
2022/09/29 03:55:51;;;;;;;3.17;0.98;;;;;;;25.07;41.71;102344.94;4191346;28;20049;-63
2022/09/29 03:57:52;;;;;;;6.53;1.15;;;;;;;24.88;42.15;102321.34;4186831;28;20040;-62
2022/09/29 03:59:54;;;;;;;9.88;1.10;;;;;;;25.06;42.22;102346.03;4188902;28;20423;-62
2022/09/29 04:01:55;;;;;;;3.10;1.00;;;;;;;25.07;42.18;102356.16;4187135;28;20431;-62
2022/09/29 04:03:57;;;;;;;1.75;0.70;;;;;;;24.81;42.28;102316.84;4195037;28;20102;-62
2022/09/29 04:05:58;;;;;;;2.45;0.98;;;;;;;25.07;42.04;102353.34;4184240;28;20037;-63
2022/09/29 04:08:00;;;;;;;2.03;0.80;;;;;;;25.07;42.21;102350.56;4193917;28;20436;-62
2022/09/29 04:10:01;;;;;;;2.95;0.75;;;;;;;24.23;42.26;102217.25;4187381;28;20114;-62
2022/09/29 04:12:03;;;;;;;3.90;0.90;;;;;;;25.07;42.28;102358.97;4190533;28;20049;-62
2022/09/29 04:14:05;;;;;;;9.68;1.05;;;;;;;24.84;42.24;102319.13;4189313;28;20098;-62
2022/09/29 04:16:06;;;;;;;1.73;1.17;;;;;;;24.82;42.19;102315.72;4191675;28;20053;-62
2022/09/29 04:18:10;;;;;;;0.98;0.60;;;;;;;25.08;42.43;102363.47;4187232;28;20041;-62
2022/09/29 04:20:14;;;;;;;2.42;0.73;;;;;;;25.09;42.23;102359.53;4186185;28;20412;-62
2022/09/29 04:22:17;;;;;;;1.92;0.85;;;;;;;25.00;41.94;102349.97;4192474;28;20048;-62
2022/09/29 04:24:18;;;;;;;2.75;1.02;;;;;;;25.09;42.08;102360.38;4185270;28;20094;-63
2022/09/29 04:26:20;;;;;;;2.65;0.70;;;;;;;25.01;42.20;102351.63;4182878;28;20041;-63
2022/09/29 04:28:21;;;;;;;3.97;0.60;;;;;;;25.09;42.28;102359.53;4183664;28;20110;-62
2022/09/29 04:30:23;;;;;;;2.45;1.00;;;;;;;25.10;42.27;102361.22;4194103;28;20040;-63
2022/09/29 04:32:24;;;;;;;2.00;0.77;;;;;;;25.06;42.35;102360.91;4185627;28;20114;-63
2022/09/29 04:34:28;;;;;;;1.33;0.93;;;;;;;25.09;42.09;102371.59;4187365;28;20102;-63
2022/09/29 04:36:32;;;;;;;1.98;0.70;;;;;;;25.06;42.37;102374.06;4188031;28;20098;-63
2022/09/29 04:38:33;;;;;;;3.75;1.20;;;;;;;25.10;42.05;102389.22;4191713;28;20048;-63
2022/09/29 04:40:37;;;;;;;2.67;0.98;;;;;;;24.77;42.20;102340.91;4187365;28;20048;-63
2022/09/29 04:42:39;;;;;;;1.23;0.80;;;;;;;25.08;42.01;102389.50;4192715;28;20045;-62
2022/09/29 04:44:40;;;;;;;1.52;0.90;;;;;;;25.08;42.52;102385.88;4185778;28;20041;-62
2022/09/29 04:46:41;;;;;;;2.70;1.00;;;;;;;25.00;42.20;102377.97;4183099;28;20102;-62
2022/09/29 04:48:43;;;;;;;2.88;0.80;;;;;;;25.07;42.53;102385.03;4194123;28;20082;-62
2022/09/29 04:50:44;;;;;;;3.40;1.00;;;;;;;24.96;42.25;102368.41;4178026;28;20057;-62
2022/09/29 04:52:46;;;;;;;1.80;0.73;;;;;;;25.07;42.14;102384.16;4185113;28;20048;-62
2022/09/29 04:54:47;;;;;;;3.20;0.80;;;;;;;25.08;42.17;102385.88;4184864;28;20041;-62
2022/09/29 04:56:51;;;;;;;4.22;1.02;;;;;;;24.98;42.42;102369.00;4188325;28;20040;-62
2022/09/29 04:58:54;;;;;;;1.10;0.70;;;;;;;25.07;42.39;102381.38;4190904;28;20045;-63
2022/09/29 05:00:55;;;;;;;2.78;0.95;;;;;;;25.07;42.31;102385.03;4187651;28;20060;-63
2022/09/29 05:02:57;;;;;;;0.70;0.57;;;;;;;25.04;42.48;102379.09;4191366;28;20101;-63
2022/09/29 05:04:59;;;;;;;1.27;0.70;;;;;;;25.07;42.38;102392.56;4185596;28;20041;-63
2022/09/29 05:07:00;;;;;;;1.83;1.10;;;;;;;25.07;42.21;102392.56;4190985;28;20048;-62
2022/09/29 05:09:04;;;;;;;0.80;0.70;;;;;;;25.04;42.44;102395.91;4191644;28;20101;-62
2022/09/29 05:11:09;;;;;;;2.43;1.10;;;;;;;25.02;42.46;102395.34;4192657;28;20036;-62
2022/09/29 05:13:10;;;;;;;3.13;0.68;;;;;;;25.03;42.55;102394.22;4193830;28;20442;-62
2022/09/29 05:15:12;;;;;;;1.20;0.80;;;;;;;24.91;42.20;102374.00;4182215;28;20606;-62
2022/09/29 05:17:13;;;;;;;0.98;0.70;;;;;;;25.05;42.58;102400.38;4184593;28;20044;-62
2022/09/29 05:19:14;;;;;;;2.97;0.82;;;;;;;25.04;42.47;102402.34;4192554;28;20041;-62
2022/09/29 05:21:16;;;;;;;1.77;0.88;;;;;;;25.05;42.51;102400.38;4190307;28;20041;-62
2022/09/29 05:23:17;;;;;;;1.00;0.55;;;;;;;25.06;42.58;102404.88;4186430;28;20044;-62
2022/09/29 05:25:24;;;;;;;0.70;0.70;;;;;;;25.05;42.44;102408.78;4187478;28;20052;-62
2022/09/29 05:27:25;;;;;;;0.90;0.75;;;;;;;25.06;42.21;102407.66;4189641;28;20122;-62
2022/09/29 05:29:26;;;;;;;0.98;0.63;;;;;;;25.06;42.50;102410.47;4188593;28;20040;-63
2022/09/29 05:31:28;;;;;;;1.83;0.60;;;;;;;24.99;42.30;102393.94;4184889;28;20060;-63
2022/09/29 05:33:29;;;;;;;0.70;0.60;;;;;;;25.06;42.29;102408.53;4181944;28;20488;-62
2022/09/29 05:35:30;;;;;;;1.75;0.60;;;;;;;25.04;42.30;102407.94;4190918;28;20040;-62
2022/09/29 05:37:31;;;;;;;1.30;0.80;;;;;;;25.04;42.43;102404.31;4190963;28;20049;-63
2022/09/29 05:39:33;;;;;;;1.65;0.75;;;;;;;25.06;42.40;102421.66;4190142;28;20041;-62
2022/09/29 05:41:34;;;;;;;1.67;0.75;;;;;;;24.97;42.41;102398.09;4191152;28;20114;-62
2022/09/29 05:43:36;;;;;;;0.80;0.63;;;;;;;25.07;42.57;102415.84;4190154;28;20492;-62
2022/09/29 05:45:37;;;;;;;0.65;0.60;;;;;;;25.08;42.34;102425.09;4194442;28;20052;-62
2022/09/29 05:47:42;;;;;;;1.23;0.90;;;;;;;24.99;42.43;102407.09;4197465;28;20368;-62
2022/09/29 05:49:43;;;;;;;0.98;0.60;;;;;;;25.07;42.35;102423.38;4194762;28;20395;-62
2022/09/29 05:51:44;;;;;;;0.95;0.77;;;;;;;25.08;42.40;102414.72;4194601;28;20045;-62
2022/09/29 05:53:46;;;;;;;2.83;0.80;;;;;;;25.07;42.35;102413.03;4185833;28;20067;-61
2022/09/29 05:55:50;;;;;;;0.55;0.50;;;;;;;25.09;42.39;102421.16;4197012;28;20033;-62
2022/09/29 05:57:52;;;;;;;1.58;0.80;;;;;;;25.07;42.21;102420.56;4193365;28;20079;-62
2022/09/29 05:59:56;;;;;;;1.80;0.80;;;;;;;25.05;41.97;102429.22;4180683;28;20086;-62
2022/09/29 06:02:03;;;;;;;0.80;0.60;;;;;;;25.09;42.08;102423.97;4180701;28;20484;-62
2022/09/29 06:04:04;;;;;;;1.27;0.70;;;;;;;25.03;42.15;102425.88;4180462;28;20079;-62
2022/09/29 06:06:15;;;;;;;1.17;0.73;;;;;;;25.07;42.12;102434.56;4180392;28;20045;-62
2022/09/29 06:08:16;;;;;;;1.13;0.57;;;;;;;25.07;42.25;102434.56;4180621;28;20033;-62
2022/09/29 06:10:19;;;;;;;0.68;0.68;;;;;;;24.94;42.66;102412.69;4185318;28;20066;-62
2022/09/29 06:12:20;;;;;;;1.42;0.80;;;;;;;25.07;42.40;102442.97;4196928;28;20132;-62
2022/09/29 06:14:22;;;;;;;0.65;0.65;;;;;;;25.07;42.10;102440.19;4196967;28;20098;-62
2022/09/29 06:16:26;;;;;;;1.98;0.68;;;;;;;25.06;42.10;102446.88;4182961;28;20048;-62
2022/09/29 06:18:27;;;;;;;0.60;0.60;;;;;;;25.06;42.05;102432.88;4180618;28;20037;-62
2022/09/29 06:20:29;;;;;;;0.80;0.70;;;;;;;25.05;42.14;102436.78;4180503;28;20095;-62
2022/09/29 06:22:30;;;;;;;1.73;0.82;;;;;;;25.05;42.12;102437.63;4180235;28;20037;-62
2022/09/29 06:24:31;;;;;;;0.70;0.70;;;;;;;24.98;42.36;102436.22;4180626;28;20036;-62
2022/09/29 06:26:33;;;;;;;1.00;0.80;;;;;;;25.05;42.26;102437.63;4180587;28;20116;-62
2022/09/29 06:28:35;;;;;;;1.35;0.77;;;;;;;25.05;42.41;102440.44;4180494;28;20041;-62
2022/09/29 06:30:36;;;;;;;0.63;0.52;;;;;;;24.99;42.26;102435.09;4180483;28;20086;-62
2022/09/29 06:32:38;;;;;;;0.90;0.60;;;;;;;25.04;42.14;102440.72;4184995;28;20049;-62
2022/09/29 06:39:22;;;;;;;1.05;0.70;;;;;;;25.04;42.05;102446.31;4180337;28;20114;-62
2022/09/29 06:41:23;;;;;;;1.08;0.80;;;;;;;25.05;42.21;102439.59;4183686;28;20114;-62
2022/09/29 06:43:24;;;;;;;1.30;0.77;;;;;;;25.05;42.04;102437.63;4179942;28;20472;-63
2022/09/29 06:45:25;;;;;;;1.88;0.85;;;;;;;25.05;42.03;102448.00;4185013;28;20090;-62
2022/09/29 06:47:27;;;;;;;1.35;0.95;;;;;;;25.04;42.06;102447.16;4191308;28;20040;-62
2022/09/29 06:49:32;;;;;;;0.93;0.82;;;;;;;25.04;42.06;102451.91;4185751;28;20041;-62
2022/09/29 06:51:35;;;;;;;0.77;0.68;;;;;;;25.03;42.22;102448.28;4181784;28;20041;-62
2022/09/29 06:53:37;;;;;;;2.63;0.80;;;;;;;25.01;42.24;102446.84;4192320;28;20040;-62
2022/09/29 06:55:50;;;;;;;1.70;0.70;;;;;;;25.05;41.84;102456.41;4189768;28;20087;-62
2022/09/29 06:57:52;;;;;;;0.80;0.57;;;;;;;25.05;42.11;102459.19;4183038;28;20037;-62
2022/09/29 06:59:53;;;;;;;0.70;0.60;;;;;;;25.05;42.10;102454.44;4187084;28;20078;-62
2022/09/29 07:01:54;;;;;;;0.60;0.60;;;;;;;25.04;42.14;102457.53;4199305;28;20419;-62
2022/09/29 07:03:56;;;;;;;1.10;0.70;;;;;;;25.04;42.23;102457.53;4199473;28;20048;-62
2022/09/29 07:06:02;;;;;;;1.00;0.75;;;;;;;25.02;41.96;102456.97;4197416;28;20542;-63
2022/09/29 07:08:03;;;;;;;1.02;0.70;;;;;;;25.04;42.06;102451.91;4182764;28;20450;-62
2022/09/29 07:10:08;;;;;;;0.63;0.63;;;;;;;25.04;42.01;102454.72;4182921;28;20427;-63
2022/09/29 07:12:10;;;;;;;0.90;0.50;;;;;;;25.04;41.82;102457.53;4199897;28;20085;-63
2022/09/29 07:14:21;;;;;;;0.77;0.60;;;;;;;25.03;41.97;102458.66;4216037;28;20048;-62
2022/09/29 07:16:22;;;;;;;0.82;0.70;;;;;;;24.92;42.18;102431.69;4215967;28;20097;-62
2022/09/29 07:18:24;;;;;;;0.80;0.77;;;;;;;25.05;41.84;102459.19;4215753;28;20070;-62
2022/09/29 07:20:30;;;;;;;0.73;0.60;;;;;;;25.03;42.05;102453.03;4210340;28;20036;-62
2022/09/29 07:22:34;;;;;;;0.75;0.65;;;;;;;25.01;42.06;102446.84;4187203;28;20135;-62
2022/09/29 07:24:35;;;;;;;0.88;0.80;;;;;;;25.04;41.78;102451.91;4191109;28;20040;-62
2022/09/29 07:26:40;;;;;;;0.80;0.80;;;;;;;25.03;41.77;102455.84;4186782;28;20044;-62
2022/09/29 07:28:44;;;;;;;0.65;0.65;;;;;;;25.02;42.18;102459.75;4182346;28;20079;-62
2022/09/29 07:30:46;;;;;;;1.02;0.75;;;;;;;25.03;41.82;102467.03;4187462;28;20032;-62
2022/09/29 07:32:47;;;;;;;0.82;0.63;;;;;;;25.03;42.05;102461.44;4194177;28;20036;-63
2022/09/29 07:34:51;;;;;;;0.50;0.50;;;;;;;25.02;41.88;102459.75;4182193;28;20067;-62
2022/09/29 07:36:55;;;;;;;1.23;0.90;;;;;;;24.99;41.94;102460.31;4181527;28;20041;-62
2022/09/29 07:38:56;;;;;;;0.73;0.73;;;;;;;24.99;41.81;102460.31;4183947;28;20537;-62
2022/09/29 07:41:06;;;;;;;1.23;0.80;;;;;;;25.02;42.20;102465.38;4186460;28;20044;-62
2022/09/29 07:43:08;;;;;;;0.90;0.63;;;;;;;24.96;41.69;102455.22;4192449;28;20143;-62
2022/09/29 07:45:09;;;;;;;0.65;0.60;;;;;;;25.00;42.14;102467.59;4185636;28;20045;-62
2022/09/29 07:47:10;;;;;;;0.70;0.70;;;;;;;25.01;41.81;102484.09;4185772;28;20033;-62
2022/09/29 07:49:11;;;;;;;0.70;0.70;;;;;;;25.01;42.07;102469.25;4195877;28;20102;-62
2022/09/29 07:51:16;;;;;;;0.60;0.60;;;;;;;24.96;41.82;102466.44;4184319;28;20041;-62
2022/09/29 07:53:18;;;;;;;0.68;0.68;;;;;;;25.00;41.89;102474.03;4188155;28;20098;-63
2022/09/29 07:55:20;;;;;;;0.88;0.88;;;;;;;25.00;41.78;102475.97;4194950;28;20040;-63
2022/09/29 07:57:21;;;;;;;0.90;0.82;;;;;;;25.00;41.73;102478.78;4188293;28;20048;-62
2022/09/29 07:59:22;;;;;;;0.75;0.70;;;;;;;25.01;41.84;102486.06;4183736;28;20041;-61
2022/09/29 08:01:24;;;;;;;1.20;0.65;;;;;;;24.98;41.80;102481.03;4181398;28;20476;-61
2022/09/29 08:03:26;;;;;;;0.70;0.70;;;;;;;24.88;41.74;102458.53;4180799;28;20057;-61
2022/09/29 08:05:33;;;;;;;0.80;0.63;;;;;;;25.00;41.50;102485.22;4184021;28;20085;-61
2022/09/29 08:07:34;;;;;;;1.55;0.60;;;;;;;25.00;41.80;102487.19;4190820;28;20125;-61
2022/09/29 08:09:36;;;;;;;0.82;0.82;;;;;;;25.00;41.91;102490.81;4188293;28;20049;-61
2022/09/29 08:11:39;;;;;;;0.68;0.60;;;;;;;24.98;41.90;102487.47;4189934;28;20099;-61
2022/09/29 08:13:41;;;;;;;0.60;0.60;;;;;;;24.91;41.77;102469.22;4188501;28;20549;-61
2022/09/29 08:15:42;;;;;;;0.65;0.65;;;;;;;24.99;41.79;102482.72;4197461;28;20036;-61
2022/09/29 08:17:43;;;;;;;0.68;0.55;;;;;;;24.97;41.64;102484.91;4196992;28;20415;-61
2022/09/29 08:19:44;;;;;;;1.05;0.60;;;;;;;24.98;41.76;102493.06;4190324;28;20045;-62
2022/09/29 08:21:48;;;;;;;0.52;0.50;;;;;;;24.93;41.83;102481.00;4184835;28;20041;-61
2022/09/29 08:23:50;;;;;;;1.15;1.00;;;;;;;24.98;42.01;102497.84;4195307;28;20052;-61
2022/09/29 08:26:16;;;;;;;0.85;0.80;;;;;;;24.96;41.28;102484.06;4185377;28;20045;-62
2022/09/29 08:28:17;;;;;;;1.00;0.90;;;;;;;24.98;41.74;102486.63;4181049;28;20095;-61
2022/09/29 08:30:19;;;;;;;0.73;0.68;;;;;;;24.98;41.88;102493.06;4184610;28;20037;-61
2022/09/29 08:32:21;;;;;;;1.65;0.68;;;;;;;24.85;41.73;102471.16;4187244;28;20037;-61
2022/09/29 08:34:22;;;;;;;1.02;0.80;;;;;;;24.94;41.67;102488.28;4179885;28;20037;-61
2022/09/29 08:36:24;;;;;;;1.10;0.73;;;;;;;24.94;41.82;102489.13;4183805;28;20103;-62
2022/09/29 08:38:32;;;;;;;0.77;0.73;;;;;;;24.91;41.67;102491.63;4181206;28;20111;-61
2022/09/29 08:40:33;;;;;;;0.75;0.57;;;;;;;24.86;41.94;102489.63;4196432;28;20090;-61
2022/09/29 08:42:58;;;;;;;0.80;0.70;;;;;;;24.93;41.79;102511.81;4194771;28;20045;-61
2022/09/29 08:45:05;;;;;;;0.87;0.73;;;;;;;24.94;41.50;102507.88;4194621;28;20044;-61
2022/09/29 08:47:29;;;;;;;0.70;0.70;;;;;;;24.93;41.85;102518.25;4187672;28;20036;-61
2022/09/29 08:49:41;;;;;;;1.60;0.82;;;;;;;24.96;41.80;102511.25;4186965;28;20098;-61
2022/09/29 08:51:53;;;;;;;1.60;0.70;;;;;;;24.89;41.82;102499.47;4180638;28;20052;-60
2022/09/29 08:53:56;;;;;;;1.17;0.50;;;;;;;24.96;41.77;102516.84;4182116;28;20048;-61
2022/09/29 08:56:12;;;;;;;1.08;0.63;;;;;;;24.91;41.98;102508.41;4196646;28;20391;-61
2022/09/29 08:58:15;;;;;;;0.73;0.60;;;;;;;24.83;41.77;102501.34;4191931;28;20044;-61
2022/09/29 09:00:18;;;;;;;0.73;0.70;;;;;;;24.94;41.70;102516.28;4183400;28;20057;-62
2022/09/29 09:02:56;;;;;;;0.73;0.70;;;;;;;24.93;41.61;102517.41;4181960;28;20043;-61
2022/09/29 09:05:09;;;;;;;0.75;0.73;;;;;;;24.93;41.63;102512.66;4189837;28;20113;-62
2022/09/29 09:07:35;;;;;;;2.25;0.70;;;;;;;24.92;41.94;102516.53;4196971;28;20114;-61
2022/09/29 09:09:55;;;;;;;;;;;;;;;24.94;41.50;102530.28;4180558;28;20112;-61
2022/09/29 09:12:21;;;;;;;0.60;0.60;;;;;;;24.98;41.52;102525.84;4181124;28;20678;-61
2022/09/29 09:15:01;;;;;;;0.50;0.50;;;;;;;24.99;41.58;102533.13;4180893;28;20048;-62
2022/09/29 09:17:14;;;;;;;0.85;0.80;;;;;;;24.98;41.65;102537.03;4189567;28;20095;-62
2022/09/29 09:19:43;;;;;;;0.50;0.50;;;;;;;24.96;41.53;102536.44;4181196;28;20056;-61
2022/09/29 09:21:59;;;;;;;0.80;0.80;;;;;;;24.93;41.79;102529.44;4190563;28;20045;-61
2022/09/29 09:24:20;;;;;;;0.60;0.60;;;;;;;24.94;41.66;102533.94;4180958;28;20045;-61
2022/09/29 09:26:37;;;;;;;0.60;0.60;;;;;;;24.92;41.47;102532.50;4192418;28;20090;-62
2022/09/29 09:29:25;;;;;;;0.70;0.70;;;;;;;24.90;41.33;102534.75;4195843;28;20643;-62
2022/09/29 09:31:39;;;;;;;1.33;0.80;;;;;;;24.90;41.47;102531.94;4174932;28;20075;-62
2022/09/29 09:33:46;;;;;;;0.70;0.70;;;;;;;24.93;41.72;102539.81;4181003;28;20439;-62
2022/09/29 09:36:01;;;;;;;0.70;0.70;;;;;;;24.92;41.70;102546.50;4185910;28;20423;-62
2022/09/29 09:38:14;;;;;;;0.52;0.52;;;;;;;24.83;41.45;102537.75;4191924;28;20094;-62
2022/09/29 09:40:23;;;;;;;1.15;0.80;;;;;;;24.90;41.70;102545.94;4180790;28;20045;-62
2022/09/29 09:42:29;;;;;;;0.60;0.60;;;;;;;24.71;41.63;102517.53;4194572;28;20036;-62
2022/09/29 09:44:39;;;;;;;0.73;0.70;;;;;;;24.91;41.61;102553.22;4191584;28;20045;-62
2022/09/29 09:46:51;;;;;;;0.63;0.57;;;;;;;24.91;41.67;102561.63;4180289;28;20045;-62
2022/09/29 09:49:01;;;;;;;0.60;0.60;;;;;;;24.90;41.51;102566.38;4183688;28;20091;-62
2022/09/29 09:51:41;;;;;;;0.50;0.50;;;;;;;24.88;41.58;102571.41;4189009;28;20090;-62